Great Falls, MT

12:57 PM MDT on September 01, 2014 (GMT -0600)
Spicer's | Change Station
CLOSE
Current Station
Personal Weather Station
Location: Great Falls, MT
Elevation: 3323 ft
Nearby Weather Stations

Elev 3323 ft 47.51 °N, 111.32 °W | Updated 0 second ago

Scattered Clouds
Scattered Clouds
70.9 °F
Feels Like 77 °F
N
-
Wind Variable Wind from North

Today
High -- | Low -- °F
--% Chance of Precip.
Yesterday
High -- | Low -- °F
Precip. -- in
6:43 AM 8:05 PM
Waxing Crescent, 43% visible
Pressure 29.90 in
Visibility 10.0 miles
Clouds Scattered Clouds 7500 ft
Heat Index 77 °F
Dew Point 42 °F
Humidity 35%
Rainfall 0.00 in
Snow Depth Not available.
UV 6 out of 12
Pollen 7.70 out of 12
Air Quality Not available.
Flu Activity Not available.
METAR KGTF 011853Z 23017G20KT 10SM SCT075 21/03 A2995 RMK AO2 SLP124 T02060028

More Conditions Fewer Conditions

Pressure 29.90 in
Visibility 10.0 miles
Clouds Scattered Clouds 7500 ft
Heat Index 77 °F
Dew Point 42 °F
Humidity 35%
Rainfall 0.00 in
Snow Depth Not available.
UV 6 out of 12
Pollen 7.70 out of 12
Air Quality Not available.
Flu Activity Not available.
METAR KGTF 011853Z 23017G20KT 10SM SCT075 21/03 A2995 RMK AO2 SLP124 T02060028

More Conditions Fewer Conditions

10-Day Weather Forecast

Almanac

Astronomy

Sep. 01, 2014 Rise Set
Actual Time 6:43 AM MDT 8:05 PM MDT
Civil Twilight 6:12 AM MDT 8:37 PM MDT
Nautical Twilight 5:33 AM MDT 9:15 PM MDT
Astronomical Twilight 4:51 AM MDT 9:56 PM MDT
Moon 2:01 PM MDT 11:40 PM MDT
Length of Visible Light 14h 24m
Length of Day
13h 21m
Tomorrow will be 3m 19s shorter.
Waxing Crescent, 43% of the Moon is Illuminated
Today
Waxing Crescent
Sep 2
First Quarter
Sep 8
Full
Sep 15
Last Quarter
Sep 24
New

Today's Extremes

State Highs State Lows

Community

WunderPhotos

Upload Photos

1,749,359 photos uploaded!

Nearby

Snow Depth

Station Depth Elevation
Stringer Creek 0 in 6550 ft
Onion Park 0 in 7410 ft
Spur Park 0 in 8100 ft
Wood Creek 1 in 5960 ft
Nevada Ridge 0 in 7020 ft

Earthquake Activity

City Distance Mag. Time & Date
No recent earthquake activity has been reported nearby.
Minimum magnitude displayed is 2.5.

Coastal Water Temperatures

Place Temperature
No Stations Reporting

Nearby Weather Stations